sensor_id;sensor_type;location;lat;lon;timestamp;temperature;humidity
42479;DHT22;28110;47.080;9.476;2023-04-03T00:01:04;7.90;99.90
42479;DHT22;28110;47.080;9.476;2023-04-03T00:03:30;7.90;99.90
42479;DHT22;28110;47.080;9.476;2023-04-03T00:05:56;7.90;99.90
42479;DHT22;28110;47.080;9.476;2023-04-03T00:08:21;7.90;99.90
42479;DHT22;28110;47.080;9.476;2023-04-03T00:10:47;7.90;99.90
42479;DHT22;28110;47.080;9.476;2023-04-03T00:13:13;7.90;99.90
42479;DHT22;28110;47.080;9.476;2023-04-03T00:15:39;7.90;99.90
42479;DHT22;28110;47.080;9.476;2023-04-03T00:18:06;7.90;99.90
42479;DHT22;28110;47.080;9.476;2023-04-03T00:20:32;7.80;99.90
42479;DHT22;28110;47.080;9.476;2023-04-03T00:22:57;7.80;99.90
42479;DHT22;28110;47.080;9.476;2023-04-03T00:25:23;7.80;99.90
42479;DHT22;28110;47.080;9.476;2023-04-03T00:27:49;7.80;99.90
42479;DHT22;28110;47.080;9.476;2023-04-03T00:30:17;7.80;99.90
42479;DHT22;28110;47.080;9.476;2023-04-03T00:32:42;7.70;99.90
42479;DHT22;28110;47.080;9.476;2023-04-03T00:35:09;7.60;99.90
42479;DHT22;28110;47.080;9.476;2023-04-03T00:37:35;7.50;99.90
42479;DHT22;28110;47.080;9.476;2023-04-03T00:40:01;7.50;99.90
42479;DHT22;28110;47.080;9.476;2023-04-03T00:42:27;7.40;99.90
42479;DHT22;28110;47.080;9.476;2023-04-03T00:47:18;7.40;99.90
42479;DHT22;28110;47.080;9.476;2023-04-03T00:49:44;7.40;99.90
42479;DHT22;28110;47.080;9.476;2023-04-03T00:52:15;7.30;99.90
42479;DHT22;28110;47.080;9.476;2023-04-03T00:54:42;7.30;99.90
42479;DHT22;28110;47.080;9.476;2023-04-03T00:57:09;7.20;99.90
42479;DHT22;28110;47.080;9.476;2023-04-03T00:59:39;7.20;99.90
42479;DHT22;28110;47.080;9.476;2023-04-03T01:02:06;7.20;99.90
42479;DHT22;28110;47.080;9.476;2023-04-03T01:04:34;7.20;99.90
42479;DHT22;28110;47.080;9.476;2023-04-03T01:07:07;7.20;99.90
42479;DHT22;28110;47.080;9.476;2023-04-03T01:09:34;7.20;99.90
42479;DHT22;28110;47.080;9.476;2023-04-03T01:12:26;7.20;99.90
42479;DHT22;28110;47.080;9.476;2023-04-03T01:14:55;7.10;99.90
42479;DHT22;28110;47.080;9.476;2023-04-03T01:25:55;7.10;99.90
42479;DHT22;28110;47.080;9.476;2023-04-03T01:28:27;7.10;99.90
42479;DHT22;28110;47.080;9.476;2023-04-03T01:31:13;7.10;99.90
42479;DHT22;28110;47.080;9.476;2023-04-03T01:33:41;7.10;99.90
42479;DHT22;28110;47.080;9.476;2023-04-03T01:36:09;7.10;99.90
42479;DHT22;28110;47.080;9.476;2023-04-03T01:38:35;7.10;99.90
42479;DHT22;28110;47.080;9.476;2023-04-03T01:41:00;7.00;99.90
42479;DHT22;28110;47.080;9.476;2023-04-03T01:43:26;7.10;99.90
42479;DHT22;28110;47.080;9.476;2023-04-03T01:45:52;7.10;99.90
42479;DHT22;28110;47.080;9.476;2023-04-03T01:48:19;7.10;99.90
42479;DHT22;28110;47.080;9.476;2023-04-03T01:50:45;7.00;99.90
42479;DHT22;28110;47.080;9.476;2023-04-03T01:53:12;7.00;99.90
42479;DHT22;28110;47.080;9.476;2023-04-03T01:55:38;6.90;99.90
42479;DHT22;28110;47.080;9.476;2023-04-03T01:58:04;6.90;99.90
42479;DHT22;28110;47.080;9.476;2023-04-03T02:00:29;6.90;99.90
42479;DHT22;28110;47.080;9.476;2023-04-03T02:02:55;6.80;99.90
42479;DHT22;28110;47.080;9.476;2023-04-03T02:05:20;6.80;99.90
42479;DHT22;28110;47.080;9.476;2023-04-03T02:07:46;6.70;99.90
42479;DHT22;28110;47.080;9.476;2023-04-03T02:10:13;6.70;99.90
42479;DHT22;28110;47.080;9.476;2023-04-03T02:12:38;6.60;99.90
42479;DHT22;28110;47.080;9.476;2023-04-03T02:15:04;6.60;99.90
42479;DHT22;28110;47.080;9.476;2023-04-03T02:17:30;6.60;99.90
42479;DHT22;28110;47.080;9.476;2023-04-03T02:19:56;6.60;99.90
42479;DHT22;28110;47.080;9.476;2023-04-03T02:22:21;6.50;99.90
42479;DHT22;28110;47.080;9.476;2023-04-03T02:24:47;6.40;99.90
42479;DHT22;28110;47.080;9.476;2023-04-03T02:27:12;6.40;99.90
42479;DHT22;28110;47.080;9.476;2023-04-03T02:29:38;6.30;99.90
42479;DHT22;28110;47.080;9.476;2023-04-03T02:32:04;6.30;99.90
42479;DHT22;28110;47.080;9.476;2023-04-03T02:34:29;6.20;99.90
42479;DHT22;28110;47.080;9.476;2023-04-03T02:36:55;6.20;99.90
42479;DHT22;28110;47.080;9.476;2023-04-03T02:39:20;6.10;99.90
42479;DHT22;28110;47.080;9.476;2023-04-03T02:41:46;6.00;99.90
42479;DHT22;28110;47.080;9.476;2023-04-03T02:44:12;6.00;99.90
42479;DHT22;28110;47.080;9.476;2023-04-03T02:46:37;5.90;99.90
42479;DHT22;28110;47.080;9.476;2023-04-03T02:49:03;5.90;99.90
42479;DHT22;28110;47.080;9.476;2023-04-03T02:51:29;5.80;99.90
42479;DHT22;28110;47.080;9.476;2023-04-03T02:53:55;5.80;99.90
42479;DHT22;28110;47.080;9.476;2023-04-03T02:56:20;5.80;99.90
42479;DHT22;28110;47.080;9.476;2023-04-03T02:58:46;5.70;99.90
42479;DHT22;28110;47.080;9.476;2023-04-03T03:01:12;5.60;99.90
42479;DHT22;28110;47.080;9.476;2023-04-03T03:03:38;5.60;99.90
42479;DHT22;28110;47.080;9.476;2023-04-03T03:06:06;5.50;99.90
42479;DHT22;28110;47.080;9.476;2023-04-03T03:08:32;5.50;99.90
42479;DHT22;28110;47.080;9.476;2023-04-03T03:10:58;5.40;99.90
42479;DHT22;28110;47.080;9.476;2023-04-03T03:13:24;5.40;99.90
42479;DHT22;28110;47.080;9.476;2023-04-03T03:15:50;5.40;99.90
42479;DHT22;28110;47.080;9.476;2023-04-03T03:18:15;5.40;99.90
42479;DHT22;28110;47.080;9.476;2023-04-03T03:20:41;5.40;99.90
42479;DHT22;28110;47.080;9.476;2023-04-03T03:23:07;5.40;99.90
42479;DHT22;28110;47.080;9.476;2023-04-03T03:25:32;5.30;99.90
42479;DHT22;28110;47.080;9.476;2023-04-03T03:27:58;5.30;99.90
42479;DHT22;28110;47.080;9.476;2023-04-03T03:30:23;5.30;99.90
42479;DHT22;28110;47.080;9.476;2023-04-03T03:32:49;5.30;99.90
42479;DHT22;28110;47.080;9.476;2023-04-03T03:35:14;5.20;99.90
42479;DHT22;28110;47.080;9.476;2023-04-03T03:37:40;5.20;99.90
42479;DHT22;28110;47.080;9.476;2023-04-03T03:40:06;5.10;99.90
42479;DHT22;28110;47.080;9.476;2023-04-03T03:42:31;5.10;99.90
42479;DHT22;28110;47.080;9.476;2023-04-03T03:44:57;5.10;99.90
42479;DHT22;28110;47.080;9.476;2023-04-03T03:47:23;5.10;99.90
42479;DHT22;28110;47.080;9.476;2023-04-03T03:49:48;4.90;99.90
42479;DHT22;28110;47.080;9.476;2023-04-03T03:52:13;4.90;99.90
42479;DHT22;28110;47.080;9.476;2023-04-03T03:54:39;4.80;99.90
42479;DHT22;28110;47.080;9.476;2023-04-03T03:57:05;4.80;99.90
42479;DHT22;28110;47.080;9.476;2023-04-03T03:59:30;4.80;99.90
42479;DHT22;28110;47.080;9.476;2023-04-03T04:01:56;4.80;99.90
42479;DHT22;28110;47.080;9.476;2023-04-03T04:04:22;4.70;99.90
42479;DHT22;28110;47.080;9.476;2023-04-03T04:06:47;4.70;99.90
42479;DHT22;28110;47.080;9.476;2023-04-03T04:09:13;4.70;99.90
42479;DHT22;28110;47.080;9.476;2023-04-03T04:11:38;4.70;99.90
42479;DHT22;28110;47.080;9.476;2023-04-03T04:14:06;4.70;99.90
42479;DHT22;28110;47.080;9.476;2023-04-03T04:16:32;4.70;99.90
42479;DHT22;28110;47.080;9.476;2023-04-03T04:18:57;4.60;99.90
42479;DHT22;28110;47.080;9.476;2023-04-03T04:21:23;4.60;99.90
42479;DHT22;28110;47.080;9.476;2023-04-03T04:23:48;4.50;99.90
42479;DHT22;28110;47.080;9.476;2023-04-03T04:26:14;4.50;99.90
42479;DHT22;28110;47.080;9.476;2023-04-03T04:28:40;4.50;99.90
42479;DHT22;28110;47.080;9.476;2023-04-03T04:31:05;4.50;99.90
42479;DHT22;28110;47.080;9.476;2023-04-03T04:33:31;4.40;99.90
42479;DHT22;28110;47.080;9.476;2023-04-03T04:35:56;4.40;99.90
42479;DHT22;28110;47.080;9.476;2023-04-03T04:38:22;4.30;99.90
42479;DHT22;28110;47.080;9.476;2023-04-03T04:40:48;4.20;99.90
42479;DHT22;28110;47.080;9.476;2023-04-03T04:43:14;4.20;99.90
42479;DHT22;28110;47.080;9.476;2023-04-03T04:45:40;4.10;99.90
42479;DHT22;28110;47.080;9.476;2023-04-03T04:48:06;4.10;99.90
42479;DHT22;28110;47.080;9.476;2023-04-03T04:50:31;4.10;99.90
42479;DHT22;28110;47.080;9.476;2023-04-03T04:52:57;4.10;99.90
42479;DHT22;28110;47.080;9.476;2023-04-03T04:55:22;4.10;99.90
42479;DHT22;28110;47.080;9.476;2023-04-03T04:57:48;4.10;99.90
42479;DHT22;28110;47.080;9.476;2023-04-03T05:00:14;4.10;99.90
42479;DHT22;28110;47.080;9.476;2023-04-03T05:02:40;4.00;99.90
42479;DHT22;28110;47.080;9.476;2023-04-03T05:05:06;4.00;99.90
42479;DHT22;28110;47.080;9.476;2023-04-03T05:07:31;4.00;99.90
42479;DHT22;28110;47.080;9.476;2023-04-03T05:09:57;4.00;99.90
42479;DHT22;28110;47.080;9.476;2023-04-03T05:12:22;4.00;99.90
42479;DHT22;28110;47.080;9.476;2023-04-03T05:14:48;4.00;99.90
42479;DHT22;28110;47.080;9.476;2023-04-03T05:17:13;4.00;99.90
42479;DHT22;28110;47.080;9.476;2023-04-03T05:19:39;3.90;99.90
42479;DHT22;28110;47.080;9.476;2023-04-03T05:22:05;3.90;99.90
42479;DHT22;28110;47.080;9.476;2023-04-03T05:24:30;3.90;99.90
42479;DHT22;28110;47.080;9.476;2023-04-03T05:26:56;3.80;99.90
42479;DHT22;28110;47.080;9.476;2023-04-03T05:29:22;3.80;99.90
42479;DHT22;28110;47.080;9.476;2023-04-03T05:31:51;3.80;99.90
42479;DHT22;28110;47.080;9.476;2023-04-03T05:34:16;3.80;99.90
42479;DHT22;28110;47.080;9.476;2023-04-03T05:36:42;3.80;99.90
42479;DHT22;28110;47.080;9.476;2023-04-03T05:39:08;3.70;99.90
42479;DHT22;28110;47.080;9.476;2023-04-03T05:41:34;3.80;99.90
42479;DHT22;28110;47.080;9.476;2023-04-03T05:43:59;3.70;99.90
42479;DHT22;28110;47.080;9.476;2023-04-03T05:46:25;3.80;99.90
42479;DHT22;28110;47.080;9.476;2023-04-03T05:48:51;3.80;99.90
42479;DHT22;28110;47.080;9.476;2023-04-03T05:51:20;3.80;99.90
42479;DHT22;28110;47.080;9.476;2023-04-03T05:53:47;3.80;99.90
42479;DHT22;28110;47.080;9.476;2023-04-03T05:56:13;3.90;99.90
42479;DHT22;28110;47.080;9.476;2023-04-03T05:58:39;3.90;99.90
42479;DHT22;28110;47.080;9.476;2023-04-03T06:01:05;4.00;99.90
42479;DHT22;28110;47.080;9.476;2023-04-03T06:03:31;4.00;99.90
42479;DHT22;28110;47.080;9.476;2023-04-03T06:05:57;4.00;99.90
42479;DHT22;28110;47.080;9.476;2023-04-03T06:08:22;4.00;99.90
42479;DHT22;28110;47.080;9.476;2023-04-03T06:10:49;4.00;99.90
42479;DHT22;28110;47.080;9.476;2023-04-03T06:13:15;4.00;99.90
42479;DHT22;28110;47.080;9.476;2023-04-03T06:15:41;4.00;99.90
42479;DHT22;28110;47.080;9.476;2023-04-03T06:18:06;4.10;99.90
42479;DHT22;28110;47.080;9.476;2023-04-03T06:20:32;4.10;99.90
42479;DHT22;28110;47.080;9.476;2023-04-03T06:22:58;4.10;99.90
42479;DHT22;28110;47.080;9.476;2023-04-03T06:25:23;4.00;99.90
42479;DHT22;28110;47.080;9.476;2023-04-03T06:27:49;4.10;99.90
42479;DHT22;28110;47.080;9.476;2023-04-03T06:30:15;4.20;99.90
42479;DHT22;28110;47.080;9.476;2023-04-03T06:32:41;4.10;99.90
42479;DHT22;28110;47.080;9.476;2023-04-03T06:35:07;4.20;99.90
42479;DHT22;28110;47.080;9.476;2023-04-03T06:37:32;4.20;99.90
42479;DHT22;28110;47.080;9.476;2023-04-03T06:39:58;4.10;99.90
42479;DHT22;28110;47.080;9.476;2023-04-03T06:42:25;4.10;99.90
42479;DHT22;28110;47.080;9.476;2023-04-03T06:44:51;4.10;99.90
42479;DHT22;28110;47.080;9.476;2023-04-03T06:47:17;4.10;99.90
42479;DHT22;28110;47.080;9.476;2023-04-03T06:49:43;4.10;99.90
42479;DHT22;28110;47.080;9.476;2023-04-03T06:52:09;4.20;99.90
42479;DHT22;28110;47.080;9.476;2023-04-03T06:54:35;4.10;99.90
42479;DHT22;28110;47.080;9.476;2023-04-03T06:57:01;4.20;99.90
42479;DHT22;28110;47.080;9.476;2023-04-03T06:59:27;4.30;99.90
42479;DHT22;28110;47.080;9.476;2023-04-03T07:01:53;4.20;99.90
42479;DHT22;28110;47.080;9.476;2023-04-03T07:04:19;4.20;99.90
42479;DHT22;28110;47.080;9.476;2023-04-03T07:06:46;4.30;99.90
42479;DHT22;28110;47.080;9.476;2023-04-03T07:09:13;4.40;99.90
42479;DHT22;28110;47.080;9.476;2023-04-03T07:11:38;4.50;99.90
42479;DHT22;28110;47.080;9.476;2023-04-03T07:14:04;4.50;99.90
42479;DHT22;28110;47.080;9.476;2023-04-03T07:16:31;4.50;99.90
42479;DHT22;28110;47.080;9.476;2023-04-03T07:18:57;4.60;99.90
42479;DHT22;28110;47.080;9.476;2023-04-03T07:21:23;4.60;99.90
42479;DHT22;28110;47.080;9.476;2023-04-03T07:23:49;4.70;99.90
42479;DHT22;28110;47.080;9.476;2023-04-03T07:26:14;4.70;99.90
42479;DHT22;28110;47.080;9.476;2023-04-03T07:28:40;4.90;99.90
42479;DHT22;28110;47.080;9.476;2023-04-03T07:31:10;5.00;99.90
42479;DHT22;28110;47.080;9.476;2023-04-03T07:33:38;5.10;99.90
42479;DHT22;28110;47.080;9.476;2023-04-03T07:36:05;5.20;99.90
42479;DHT22;28110;47.080;9.476;2023-04-03T07:38:32;5.20;99.90
42479;DHT22;28110;47.080;9.476;2023-04-03T07:40:58;5.20;99.90
42479;DHT22;28110;47.080;9.476;2023-04-03T07:43:23;5.20;99.90
42479;DHT22;28110;47.080;9.476;2023-04-03T07:45:50;5.10;99.90
42479;DHT22;28110;47.080;9.476;2023-04-03T07:48:18;5.10;99.90
42479;DHT22;28110;47.080;9.476;2023-04-03T07:50:44;5.30;99.90
42479;DHT22;28110;47.080;9.476;2023-04-03T07:53:10;5.50;99.90
42479;DHT22;28110;47.080;9.476;2023-04-03T07:55:36;5.70;99.90
42479;DHT22;28110;47.080;9.476;2023-04-03T07:58:12;5.60;99.90
42479;DHT22;28110;47.080;9.476;2023-04-03T08:00:38;5.60;99.90
42479;DHT22;28110;47.080;9.476;2023-04-03T08:03:05;5.60;99.90
42479;DHT22;28110;47.080;9.476;2023-04-03T08:05:31;5.60;99.90
42479;DHT22;28110;47.080;9.476;2023-04-03T08:07:57;5.60;99.90
42479;DHT22;28110;47.080;9.476;2023-04-03T08:10:22;5.60;99.90
42479;DHT22;28110;47.080;9.476;2023-04-03T08:12:48;5.60;99.90
42479;DHT22;28110;47.080;9.476;2023-04-03T08:15:14;5.60;99.90
42479;DHT22;28110;47.080;9.476;2023-04-03T08:17:39;5.60;99.90
42479;DHT22;28110;47.080;9.476;2023-04-03T08:20:06;5.50;99.90
42479;DHT22;28110;47.080;9.476;2023-04-03T08:22:33;5.50;99.90
42479;DHT22;28110;47.080;9.476;2023-04-03T08:24:58;5.60;99.90
42479;DHT22;28110;47.080;9.476;2023-04-03T08:27:25;5.70;99.90
42479;DHT22;28110;47.080;9.476;2023-04-03T08:29:51;5.80;99.90
42479;DHT22;28110;47.080;9.476;2023-04-03T08:32:17;5.80;99.90
42479;DHT22;28110;47.080;9.476;2023-04-03T08:34:43;5.80;99.90
42479;DHT22;28110;47.080;9.476;2023-04-03T08:37:09;5.80;99.90
42479;DHT22;28110;47.080;9.476;2023-04-03T08:39:35;5.70;99.90
42479;DHT22;28110;47.080;9.476;2023-04-03T08:42:05;5.70;99.90
42479;DHT22;28110;47.080;9.476;2023-04-03T08:47:47;5.70;99.90
42479;DHT22;28110;47.080;9.476;2023-04-03T08:50:16;5.60;99.90
42479;DHT22;28110;47.080;9.476;2023-04-03T08:52:47;5.60;99.90
42479;DHT22;28110;47.080;9.476;2023-04-03T08:55:27;5.70;99.90
42479;DHT22;28110;47.080;9.476;2023-04-03T08:58:14;5.70;99.90
42479;DHT22;28110;47.080;9.476;2023-04-03T09:03:16;5.70;99.90
42479;DHT22;28110;47.080;9.476;2023-04-03T09:08:21;5.80;99.90
42479;DHT22;28110;47.080;9.476;2023-04-03T09:10:49;5.90;99.90
42479;DHT22;28110;47.080;9.476;2023-04-03T09:13:33;5.90;99.90
42479;DHT22;28110;47.080;9.476;2023-04-03T09:16:04;6.00;99.90
42479;DHT22;28110;47.080;9.476;2023-04-03T09:18:45;6.00;99.90
42479;DHT22;28110;47.080;9.476;2023-04-03T09:21:20;5.90;99.90
42479;DHT22;28110;47.080;9.476;2023-04-03T09:23:51;5.90;99.90
42479;DHT22;28110;47.080;9.476;2023-04-03T09:26:42;5.80;99.90
42479;DHT22;28110;47.080;9.476;2023-04-03T09:29:07;5.70;99.90
42479;DHT22;28110;47.080;9.476;2023-04-03T09:31:39;5.70;99.90
42479;DHT22;28110;47.080;9.476;2023-04-03T09:34:32;5.60;99.90
42479;DHT22;28110;47.080;9.476;2023-04-03T09:37:01;5.70;99.90
42479;DHT22;28110;47.080;9.476;2023-04-03T09:39:52;5.90;99.90
42479;DHT22;28110;47.080;9.476;2023-04-03T09:42:23;5.90;99.90
42479;DHT22;28110;47.080;9.476;2023-04-03T09:44:56;6.00;99.90
42479;DHT22;28110;47.080;9.476;2023-04-03T09:47:26;6.10;99.90
42479;DHT22;28110;47.080;9.476;2023-04-03T09:52:34;6.10;99.90
42479;DHT22;28110;47.080;9.476;2023-04-03T09:55:16;6.10;99.90
42479;DHT22;28110;47.080;9.476;2023-04-03T09:57:46;6.10;99.90
42479;DHT22;28110;47.080;9.476;2023-04-03T10:00:34;6.30;99.90
42479;DHT22;28110;47.080;9.476;2023-04-03T10:03:00;6.20;99.90
42479;DHT22;28110;47.080;9.476;2023-04-03T10:05:39;6.20;99.90
42479;DHT22;28110;47.080;9.476;2023-04-03T10:10:41;6.00;99.90
42479;DHT22;28110;47.080;9.476;2023-04-03T10:13:19;6.20;99.90
42479;DHT22;28110;47.080;9.476;2023-04-03T10:16:10;6.20;99.90
42479;DHT22;28110;47.080;9.476;2023-04-03T10:18:44;6.20;99.90
42479;DHT22;28110;47.080;9.476;2023-04-03T10:21:25;6.20;99.90
42479;DHT22;28110;47.080;9.476;2023-04-03T10:24:51;6.20;99.90
42479;DHT22;28110;47.080;9.476;2023-04-03T10:27:18;6.20;99.90
42479;DHT22;28110;47.080;9.476;2023-04-03T10:35:11;6.10;99.90
42479;DHT22;28110;47.080;9.476;2023-04-03T10:40:35;6.00;99.90
42479;DHT22;28110;47.080;9.476;2023-04-03T10:46:12;5.90;99.90
42479;DHT22;28110;47.080;9.476;2023-04-03T10:51:24;5.90;99.90
42479;DHT22;28110;47.080;9.476;2023-04-03T10:54:15;5.90;99.90
42479;DHT22;28110;47.080;9.476;2023-04-03T10:57:06;5.80;99.90
42479;DHT22;28110;47.080;9.476;2023-04-03T10:59:43;5.90;99.90
42479;DHT22;28110;47.080;9.476;2023-04-03T11:02:31;6.00;99.90
42479;DHT22;28110;47.080;9.476;2023-04-03T11:05:04;6.10;99.90
42479;DHT22;28110;47.080;9.476;2023-04-03T11:07:38;6.00;99.90
42479;DHT22;28110;47.080;9.476;2023-04-03T11:15:53;6.10;99.90
42479;DHT22;28110;47.080;9.476;2023-04-03T11:18:43;6.10;99.90
42479;DHT22;28110;47.080;9.476;2023-04-03T11:23:51;6.20;99.90
42479;DHT22;28110;47.080;9.476;2023-04-03T11:26:20;6.10;99.90
42479;DHT22;28110;47.080;9.476;2023-04-03T11:28:52;6.10;99.90
42479;DHT22;28110;47.080;9.476;2023-04-03T11:32:04;6.20;99.90
42479;DHT22;28110;47.080;9.476;2023-04-03T11:37:11;6.20;99.90
42479;DHT22;28110;47.080;9.476;2023-04-03T11:39:39;6.20;99.90
42479;DHT22;28110;47.080;9.476;2023-04-03T11:42:23;6.20;99.90
42479;DHT22;28110;47.080;9.476;2023-04-03T11:47:51;6.40;99.90
42479;DHT22;28110;47.080;9.476;2023-04-03T12:05:50;6.70;99.90
42479;DHT22;28110;47.080;9.476;2023-04-03T12:16:21;6.70;99.90
42479;DHT22;28110;47.080;9.476;2023-04-03T12:21:20;6.70;99.90
42479;DHT22;28110;47.080;9.476;2023-04-03T12:30:03;6.60;99.90
42479;DHT22;28110;47.080;9.476;2023-04-03T12:40:32;6.80;99.90
42479;DHT22;28110;47.080;9.476;2023-04-03T12:48:17;6.90;99.90
42479;DHT22;28110;47.080;9.476;2023-04-03T12:50:45;7.00;99.90
42479;DHT22;28110;47.080;9.476;2023-04-03T12:53:16;7.00;99.90
42479;DHT22;28110;47.080;9.476;2023-04-03T12:55:43;7.20;99.90
42479;DHT22;28110;47.080;9.476;2023-04-03T13:00:42;7.60;99.90
42479;DHT22;28110;47.080;9.476;2023-04-03T13:03:21;7.70;99.90
42479;DHT22;28110;47.080;9.476;2023-04-03T13:05:48;7.70;99.90
42479;DHT22;28110;47.080;9.476;2023-04-03T13:08:14;7.80;99.90
42479;DHT22;28110;47.080;9.476;2023-04-03T13:10:52;7.90;99.90
42479;DHT22;28110;47.080;9.476;2023-04-03T13:13:18;7.90;99.90
42479;DHT22;28110;47.080;9.476;2023-04-03T13:15:47;7.90;99.90
42479;DHT22;28110;47.080;9.476;2023-04-03T13:18:23;8.10;99.90
42479;DHT22;28110;47.080;9.476;2023-04-03T13:20:49;8.00;99.90
42479;DHT22;28110;47.080;9.476;2023-04-03T13:23:17;8.00;99.90
42479;DHT22;28110;47.080;9.476;2023-04-03T13:25:46;8.10;99.90
42479;DHT22;28110;47.080;9.476;2023-04-03T13:28:17;8.20;99.90
42479;DHT22;28110;47.080;9.476;2023-04-03T13:33:24;8.00;99.90
42479;DHT22;28110;47.080;9.476;2023-04-03T13:36:04;8.10;99.90
42479;DHT22;28110;47.080;9.476;2023-04-03T13:38:31;7.90;99.90
42479;DHT22;28110;47.080;9.476;2023-04-03T13:41:01;7.90;99.90
42479;DHT22;28110;47.080;9.476;2023-04-03T13:43:31;8.00;99.90
42479;DHT22;28110;47.080;9.476;2023-04-03T13:46:19;7.90;99.90
42479;DHT22;28110;47.080;9.476;2023-04-03T13:48:49;8.00;99.90
42479;DHT22;28110;47.080;9.476;2023-04-03T13:51:20;8.00;99.90
42479;DHT22;28110;47.080;9.476;2023-04-03T13:54:00;7.90;99.90
42479;DHT22;28110;47.080;9.476;2023-04-03T13:56:37;7.70;99.90
42479;DHT22;28110;47.080;9.476;2023-04-03T13:59:30;7.70;99.90
42479;DHT22;28110;47.080;9.476;2023-04-03T14:06:57;7.60;99.90
42479;DHT22;28110;47.080;9.476;2023-04-03T14:09:25;7.60;99.90
42479;DHT22;28110;47.080;9.476;2023-04-03T14:12:00;7.60;99.90
42479;DHT22;28110;47.080;9.476;2023-04-03T14:14:32;7.50;99.90
42479;DHT22;28110;47.080;9.476;2023-04-03T14:17:00;7.40;99.90
42479;DHT22;28110;47.080;9.476;2023-04-03T14:19:29;7.40;99.90
42479;DHT22;28110;47.080;9.476;2023-04-03T14:21:55;7.40;99.90
42479;DHT22;28110;47.080;9.476;2023-04-03T14:24:22;7.40;99.90
42479;DHT22;28110;47.080;9.476;2023-04-03T14:26:50;7.40;99.90
42479;DHT22;28110;47.080;9.476;2023-04-03T14:29:16;7.50;99.90
42479;DHT22;28110;47.080;9.476;2023-04-03T14:31:44;7.40;99.90
42479;DHT22;28110;47.080;9.476;2023-04-03T14:34:12;7.30;99.90
42479;DHT22;28110;47.080;9.476;2023-04-03T14:36:38;7.30;99.90
42479;DHT22;28110;47.080;9.476;2023-04-03T14:39:05;7.20;99.90
42479;DHT22;28110;47.080;9.476;2023-04-03T14:41:31;7.20;99.90
42479;DHT22;28110;47.080;9.476;2023-04-03T14:43:57;7.20;99.90
42479;DHT22;28110;47.080;9.476;2023-04-03T14:46:30;7.10;99.90
42479;DHT22;28110;47.080;9.476;2023-04-03T14:48:57;7.10;99.90
42479;DHT22;28110;47.080;9.476;2023-04-03T14:51:22;7.20;99.90
42479;DHT22;28110;47.080;9.476;2023-04-03T14:53:48;7.20;99.90
42479;DHT22;28110;47.080;9.476;2023-04-03T14:56:18;7.10;99.90
42479;DHT22;28110;47.080;9.476;2023-04-03T14:58:47;7.10;99.90
42479;DHT22;28110;47.080;9.476;2023-04-03T15:01:17;7.10;99.90
42479;DHT22;28110;47.080;9.476;2023-04-03T15:03:44;7.00;99.90
42479;DHT22;28110;47.080;9.476;2023-04-03T15:06:14;7.10;99.90
42479;DHT22;28110;47.080;9.476;2023-04-03T15:08:41;7.00;99.90
42479;DHT22;28110;47.080;9.476;2023-04-03T15:11:09;7.00;99.90
42479;DHT22;28110;47.080;9.476;2023-04-03T15:13:35;7.00;99.90
42479;DHT22;28110;47.080;9.476;2023-04-03T15:16:01;6.90;99.90
42479;DHT22;28110;47.080;9.476;2023-04-03T15:18:27;6.90;99.90
42479;DHT22;28110;47.080;9.476;2023-04-03T15:20:55;6.80;99.90
42479;DHT22;28110;47.080;9.476;2023-04-03T15:23:21;6.90;99.90
42479;DHT22;28110;47.080;9.476;2023-04-03T15:25:52;6.80;99.90
42479;DHT22;28110;47.080;9.476;2023-04-03T15:28:23;6.90;99.90
42479;DHT22;28110;47.080;9.476;2023-04-03T15:30:50;6.80;99.90
42479;DHT22;28110;47.080;9.476;2023-04-03T15:33:16;6.80;99.90
42479;DHT22;28110;47.080;9.476;2023-04-03T15:35:42;6.80;99.90
42479;DHT22;28110;47.080;9.476;2023-04-03T15:38:08;6.70;99.90
42479;DHT22;28110;47.080;9.476;2023-04-03T15:40:35;6.70;99.90
42479;DHT22;28110;47.080;9.476;2023-04-03T15:43:00;6.60;99.90
42479;DHT22;28110;47.080;9.476;2023-04-03T15:45:28;6.60;99.90
42479;DHT22;28110;47.080;9.476;2023-04-03T15:47:54;6.60;99.90
42479;DHT22;28110;47.080;9.476;2023-04-03T15:50:20;6.60;99.90
42479;DHT22;28110;47.080;9.476;2023-04-03T15:52:48;6.50;99.90
42479;DHT22;28110;47.080;9.476;2023-04-03T15:55:16;6.50;99.90
42479;DHT22;28110;47.080;9.476;2023-04-03T15:57:42;6.60;99.90
42479;DHT22;28110;47.080;9.476;2023-04-03T16:00:08;6.60;99.90
42479;DHT22;28110;47.080;9.476;2023-04-03T16:02:34;6.60;99.90
42479;DHT22;28110;47.080;9.476;2023-04-03T16:04:59;6.60;99.90
42479;DHT22;28110;47.080;9.476;2023-04-03T16:07:25;6.50;99.90
42479;DHT22;28110;47.080;9.476;2023-04-03T16:09:51;6.50;99.90
42479;DHT22;28110;47.080;9.476;2023-04-03T16:12:17;6.50;99.90
42479;DHT22;28110;47.080;9.476;2023-04-03T16:14:43;6.40;99.90
42479;DHT22;28110;47.080;9.476;2023-04-03T16:17:08;6.40;99.90
42479;DHT22;28110;47.080;9.476;2023-04-03T16:19:34;6.40;99.90
42479;DHT22;28110;47.080;9.476;2023-04-03T16:22:00;6.30;99.90
42479;DHT22;28110;47.080;9.476;2023-04-03T16:24:25;6.30;99.90
42479;DHT22;28110;47.080;9.476;2023-04-03T16:26:51;6.30;99.90
42479;DHT22;28110;47.080;9.476;2023-04-03T16:29:18;6.30;99.90
42479;DHT22;28110;47.080;9.476;2023-04-03T16:31:44;6.30;99.90
42479;DHT22;28110;47.080;9.476;2023-04-03T16:34:09;6.30;99.90
42479;DHT22;28110;47.080;9.476;2023-04-03T16:36:35;6.30;99.90
42479;DHT22;28110;47.080;9.476;2023-04-03T16:39:03;6.30;99.90
42479;DHT22;28110;47.080;9.476;2023-04-03T16:41:28;6.30;99.90
42479;DHT22;28110;47.080;9.476;2023-04-03T16:43:54;6.30;99.90
42479;DHT22;28110;47.080;9.476;2023-04-03T16:46:20;6.30;99.90
42479;DHT22;28110;47.080;9.476;2023-04-03T16:48:45;6.30;99.90
42479;DHT22;28110;47.080;9.476;2023-04-03T16:51:12;6.30;99.90
42479;DHT22;28110;47.080;9.476;2023-04-03T16:53:38;6.30;99.90
42479;DHT22;28110;47.080;9.476;2023-04-03T16:56:03;6.30;99.90
42479;DHT22;28110;47.080;9.476;2023-04-03T16:58:29;6.30;99.90
42479;DHT22;28110;47.080;9.476;2023-04-03T17:00:54;6.30;99.90
42479;DHT22;28110;47.080;9.476;2023-04-03T17:03:20;6.20;99.90
42479;DHT22;28110;47.080;9.476;2023-04-03T17:05:47;6.20;99.90
42479;DHT22;28110;47.080;9.476;2023-04-03T17:08:13;6.10;99.90
42479;DHT22;28110;47.080;9.476;2023-04-03T17:10:39;6.10;99.90
42479;DHT22;28110;47.080;9.476;2023-04-03T17:13:04;6.00;99.90
42479;DHT22;28110;47.080;9.476;2023-04-03T17:15:30;6.00;99.90
42479;DHT22;28110;47.080;9.476;2023-04-03T17:17:56;6.00;99.90
42479;DHT22;28110;47.080;9.476;2023-04-03T17:20:21;6.00;99.90
42479;DHT22;28110;47.080;9.476;2023-04-03T17:22:47;6.00;99.90
42479;DHT22;28110;47.080;9.476;2023-04-03T17:25:13;6.00;99.90
42479;DHT22;28110;47.080;9.476;2023-04-03T17:27:39;6.00;99.90
42479;DHT22;28110;47.080;9.476;2023-04-03T17:30:06;5.90;99.90
42479;DHT22;28110;47.080;9.476;2023-04-03T17:32:32;5.90;99.90
42479;DHT22;28110;47.080;9.476;2023-04-03T17:34:58;5.90;99.90
42479;DHT22;28110;47.080;9.476;2023-04-03T17:37:23;5.80;99.90
42479;DHT22;28110;47.080;9.476;2023-04-03T17:39:49;5.70;99.90